Time;durP1;ratioP1;P1;durP2;ratioP2;P2;SDS_P1;SDS_P2;PMS_P1;PMS_P2;Temp;Humidity;BMP_temperature;BMP_pressure;BME280_temperature;BME280_humidity;BME280_pressure;Samples;Min_cycle;Max_cycle;Signal;HPM_P1;HPM_P2
2021/09/11 00:00:28;;;;;;;44.03;22.32;;;;;;;13.05;73.06;99793.17;1646276;87;21051;-75
2021/09/11 00:02:54;;;;;;;45.20;21.20;;;;;;;13.00;73.13;99796.91;1622390;87;21083;-73
2021/09/11 00:05:32;;;;;;;38.90;20.92;;;;;;;12.97;73.15;99798.95;1646525;86;21059;-74
2021/09/11 00:08:07;;;;;;;40.17;18.85;;;;;;;12.98;73.19;99797.24;1637513;87;21548;-72
2021/09/11 00:10:36;;;;;;;41.02;20.20;;;;;;;13.01;72.99;99793.02;1641487;87;21598;-71
2021/09/11 00:13:04;;;;;;;46.40;19.92;;;;;;;13.03;72.82;99798.45;1645869;87;21586;-74
2021/09/11 00:15:33;;;;;;;39.90;20.92;;;;;;;13.04;72.66;99797.89;1623172;87;22623;-72
2021/09/11 00:18:03;;;;;;;43.10;22.30;;;;;;;13.05;72.46;99796.73;1642870;87;21059;-71
2021/09/11 00:20:30;;;;;;;49.05;24.63;;;;;;;13.03;72.37;99797.66;1646073;87;21096;-75
2021/09/11 00:22:58;;;;;;;48.17;21.97;;;;;;;13.02;72.21;99798.78;1646344;86;21051;-73
2021/09/11 00:25:24;;;;;;;56.18;21.95;;;;;;;13.00;72.05;99794.14;1619168;87;21594;-74
2021/09/11 00:27:51;;;;;;;42.98;22.15;;;;;;;12.92;72.15;99789.45;1646651;87;21542;-76
2021/09/11 00:30:19;;;;;;;41.90;21.12;;;;;;;12.85;72.52;99794.11;1646436;86;21539;-74
2021/09/11 00:32:45;;;;;;;42.65;19.20;;;;;;;12.85;72.61;99794.11;1624498;87;21560;-72
2021/09/11 00:35:14;;;;;;;39.13;18.00;;;;;;;12.85;72.56;99796.88;1624687;87;21485;-74
2021/09/11 00:37:48;;;;;;;40.30;18.00;;;;;;;12.86;72.55;99798.52;1644756;87;21075;-71
2021/09/11 00:40:16;;;;;;;33.55;17.40;;;;;;;12.85;72.49;99794.92;1624987;87;21769;-74
2021/09/11 00:42:47;;;;;;;35.15;18.17;;;;;;;12.86;72.48;99799.30;1646695;87;21020;-74
2021/09/11 00:45:17;;;;;;;36.98;18.92;;;;;;;12.87;72.65;99800.95;1646489;87;21012;-71
2021/09/11 00:47:46;;;;;;;41.88;18.57;;;;;;;12.88;72.57;99801.18;1646458;87;21635;-75
2021/09/11 00:50:13;;;;;;;43.70;19.05;;;;;;;12.88;72.47;99799.00;1622744;87;21055;-75
2021/09/11 00:52:41;;;;;;;42.13;18.75;;;;;;;12.87;72.38;99799.56;1637336;85;21812;-75
2021/09/11 00:55:11;;;;;;;34.53;18.48;;;;;;;12.86;72.28;99800.69;1617977;88;21092;-74
2021/09/11 00:57:44;;;;;;;34.03;18.60;;;;;;;12.84;72.13;99804.38;1627506;87;21134;-75
2021/09/11 01:00:12;;;;;;;42.17;18.07;;;;;;;12.82;72.16;99805.83;1646486;86;21516;-72
2021/09/11 01:02:39;;;;;;;37.80;18.07;;;;;;;12.77;72.16;99800.73;1642128;85;21110;-73
2021/09/11 01:05:07;;;;;;;43.10;18.57;;;;;;;12.74;72.45;99801.95;1646963;86;21560;-75
2021/09/11 01:07:35;;;;;;;37.48;17.62;;;;;;;12.70;72.58;99797.64;1646414;85;21131;-74
2021/09/11 01:10:01;;;;;;;38.05;17.05;;;;;;;12.66;72.90;99801.63;1627047;87;21536;-74
2021/09/11 01:12:28;;;;;;;41.02;19.73;;;;;;;12.60;73.28;99800.74;1646477;87;21071;-72
2021/09/11 01:14:54;;;;;;;36.77;18.25;;;;;;;12.60;73.36;99800.19;1646840;87;21509;-75
2021/09/11 01:17:25;;;;;;;42.78;19.55;;;;;;;12.61;73.20;99795.45;1646408;86;21047;-75
2021/09/11 01:19:52;;;;;;;35.33;19.02;;;;;;;12.62;73.10;99797.09;1646994;86;21004;-73
2021/09/11 01:22:22;;;;;;;43.30;18.55;;;;;;;12.62;72.98;99792.95;1646436;87;21074;-75
2021/09/11 01:25:03;;;;;;;34.33;17.50;;;;;;;12.60;73.00;99788.30;1646642;87;21099;-74
2021/09/11 01:27:32;;;;;;;36.00;18.00;;;;;;;12.51;73.26;99791.08;1647019;86;21043;-76
2021/09/11 01:30:05;;;;;;;35.17;17.20;;;;;;;12.47;73.45;99784.59;1646634;87;21591;-71
2021/09/11 01:32:31;;;;;;;37.80;17.52;;;;;;;12.47;73.35;99783.21;1649144;85;21525;-75
2021/09/11 01:34:58;;;;;;;37.93;19.42;;;;;;;12.48;73.23;99784.27;1622254;87;21055;-74
2021/09/11 01:37:28;;;;;;;39.05;19.77;;;;;;;12.45;73.34;99785.48;1646485;87;21489;-73
2021/09/11 01:39:56;;;;;;;42.25;20.92;;;;;;;12.35;73.65;99784.66;1646483;87;21040;-74
2021/09/11 01:42:27;;;;;;;34.50;19.12;;;;;;;12.31;73.89;99783.70;1646716;86;21481;-74
2021/09/11 01:44:59;;;;;;;41.33;21.25;;;;;;;12.29;74.06;99786.80;1646102;86;21024;-72
2021/09/11 01:47:26;;;;;;;41.65;21.57;;;;;;;12.32;74.10;99788.08;1621857;87;21088;-74
2021/09/11 01:49:54;;;;;;;42.70;20.97;;;;;;;12.36;73.94;99779.39;1585936;88;21081;-75
2021/09/11 01:52:21;;;;;;;40.12;19.23;;;;;;;12.39;73.81;99778.73;1599753;88;21124;-73
2021/09/11 01:54:47;;;;;;;39.42;18.87;;;;;;;12.41;73.65;99781.99;1596915;89;21084;-73
2021/09/11 01:57:14;;;;;;;45.52;20.52;;;;;;;12.43;73.58;99773.94;1596568;89;21608;-74
2021/09/11 01:59:43;;;;;;;47.08;21.23;;;;;;;12.44;73.54;99774.17;1596671;89;21096;-73
2021/09/11 02:02:09;;;;;;;51.48;21.70;;;;;;;12.44;73.60;99776.93;1596655;89;21060;-71
2021/09/11 02:04:37;;;;;;;42.50;21.10;;;;;;;12.39;73.71;99777.36;1596391;89;21061;-72
2021/09/11 02:07:06;;;;;;;39.38;21.40;;;;;;;12.30;73.98;99775.16;1596450;89;21064;-73
2021/09/11 02:09:37;;;;;;;43.87;20.90;;;;;;;12.30;73.86;99779.30;1596855;89;21839;-71
2021/09/11 02:12:05;;;;;;;52.27;20.77;;;;;;;12.31;73.62;99776.80;1596653;89;21521;-75
2021/09/11 02:14:33;;;;;;;40.08;20.55;;;;;;;12.26;73.91;99774.20;1596666;89;21117;-70
2021/09/11 02:17:03;;;;;;;43.28;19.57;;;;;;;12.17;74.20;99770.05;1596773;89;21518;-71
2021/09/11 02:19:32;;;;;;;42.43;19.52;;;;;;;12.17;74.36;99770.05;1593580;89;21251;-72
2021/09/11 02:21:59;;;;;;;52.27;20.48;;;;;;;12.20;74.24;99768.02;1596692;89;21069;-71
2021/09/11 02:24:29;;;;;;;49.33;22.93;;;;;;;12.25;74.06;99776.70;1596879;89;21148;-73
2021/09/11 02:26:57;;;;;;;39.78;21.87;;;;;;;12.27;74.04;99776.62;1596389;89;21078;-72
2021/09/11 02:29:24;;;;;;;47.62;22.82;;;;;;;12.29;73.98;99775.74;1596281;89;21203;-73
2021/09/11 02:31:52;;;;;;;47.60;23.02;;;;;;;12.31;73.86;99779.56;1596809;89;21649;-71
2021/09/11 02:34:19;;;;;;;46.40;23.67;;;;;;;12.33;73.62;99780.05;1596681;89;21075;-73
2021/09/11 02:36:46;;;;;;;39.90;20.45;;;;;;;12.32;73.42;99778.41;1596496;89;21050;-72
2021/09/11 02:39:12;;;;;;;44.25;21.57;;;;;;;12.26;73.66;99780.55;1597064;89;21026;-72
2021/09/11 02:41:38;;;;;;;40.12;20.23;;;;;;;12.13;74.10;99775.99;1596791;89;21116;-72
2021/09/11 02:44:06;;;;;;;45.73;22.52;;;;;;;12.03;74.47;99777.07;1577066;89;21834;-74
2021/09/11 02:46:33;;;;;;;50.43;22.25;;;;;;;11.96;74.76;99775.38;1596610;89;21038;-74
2021/09/11 02:49:00;;;;;;;48.33;23.75;;;;;;;11.95;74.91;99774.56;1566554;89;21081;-75
2021/09/11 02:51:28;;;;;;;49.48;22.90;;;;;;;11.98;74.97;99775.84;1596351;89;21135;-71
2021/09/11 02:53:58;;;;;;;50.35;23.92;;;;;;;11.97;75.06;99772.30;1596746;88;21037;-74
2021/09/11 02:56:26;;;;;;;51.35;24.37;;;;;;;11.98;75.03;99777.22;1596613;89;21621;-72
2021/09/11 02:58:54;;;;;;;51.20;24.55;;;;;;;11.99;74.97;99771.38;1596581;89;21125;-75
2021/09/11 03:01:23;;;;;;;41.53;22.62;;;;;;;12.00;74.87;99770.81;1596801;89;21577;-74
2021/09/11 03:03:49;;;;;;;46.28;22.20;;;;;;;12.00;74.80;99776.34;1596770;89;21077;-73
2021/09/11 03:06:17;;;;;;;45.73;21.97;;;;;;;12.02;74.63;99777.66;1596833;89;21088;-74
2021/09/11 03:08:43;;;;;;;42.30;21.35;;;;;;;12.04;74.48;99776.74;1596389;89;21545;-73
2021/09/11 03:11:12;;;;;;;41.35;21.23;;;;;;;12.05;74.22;99772.05;1592942;89;21057;-72
2021/09/11 03:13:38;;;;;;;45.90;23.45;;;;;;;12.06;73.93;99769.52;1596662;89;21573;-70
2021/09/11 03:16:06;;;;;;;42.62;21.50;;;;;;;12.00;74.23;99772.20;1596714;89;21145;-74
2021/09/11 03:18:33;;;;;;;45.73;24.10;;;;;;;11.89;74.61;99771.13;1592951;89;21029;-72
2021/09/11 03:21:02;;;;;;;52.20;25.65;;;;;;;11.80;75.00;99773.08;1596670;89;21744;-75
2021/09/11 03:23:30;;;;;;;49.63;25.82;;;;;;;11.76;75.30;99773.47;1596625;89;21120;-73
2021/09/11 03:25:58;;;;;;;51.20;24.87;;;;;;;11.78;75.36;99772.02;1596406;88;21680;-73
2021/09/11 03:28:24;;;;;;;49.98;23.18;;;;;;;11.83;75.18;99777.12;1596635;89;21048;-75
2021/09/11 03:30:51;;;;;;;43.87;22.25;;;;;;;11.87;74.96;99774.80;1585965;89;21120;-73
2021/09/11 03:33:20;;;;;;;44.25;22.52;;;;;;;11.89;74.82;99779.41;1577142;89;21094;-73
2021/09/11 03:35:49;;;;;;;46.75;25.12;;;;;;;11.91;74.80;99779.91;1596753;89;21089;-75
2021/09/11 03:38:15;;;;;;;41.77;22.87;;;;;;;11.93;74.79;99785.11;1576389;89;21029;-72
2021/09/11 03:40:45;;;;;;;44.93;24.10;;;;;;;11.96;74.87;99782.28;1596642;89;21101;-75
2021/09/11 03:43:12;;;;;;;53.80;23.75;;;;;;;11.98;74.78;99792.41;1593061;89;21084;-71
2021/09/11 03:45:44;;;;;;;43.55;22.95;;;;;;;11.98;74.66;99786.89;1591945;89;21199;-74
2021/09/11 03:48:12;;;;;;;48.73;24.30;;;;;;;11.93;74.95;99790.63;1596927;89;21542;-71
2021/09/11 03:50:40;;;;;;;56.13;23.30;;;;;;;11.87;75.19;99789.98;1596630;89;21065;-71
2021/09/11 03:53:08;;;;;;;40.30;22.37;;;;;;;11.88;75.28;99788.02;1594330;88;21127;-74
2021/09/11 03:55:38;;;;;;;41.50;22.40;;;;;;;11.90;75.22;99785.20;1603805;88;21067;-73
2021/09/11 03:58:08;;;;;;;41.50;21.45;;;;;;;11.93;75.28;99790.06;1576593;89;21174;-72
2021/09/11 04:00:36;;;;;;;43.02;22.15;;;;;;;11.91;75.43;99785.43;1643898;87;21124;-73
2021/09/11 04:03:03;;;;;;;48.35;22.27;;;;;;;11.87;75.70;99789.98;1620361;87;21112;-73
2021/09/11 04:05:36;;;;;;;44.88;23.00;;;;;;;11.90;75.89;99787.14;1646655;86;21496;-73
2021/09/11 04:08:03;;;;;;;45.58;22.55;;;;;;;11.97;75.80;99794.94;1589569;87;21076;-74
2021/09/11 04:10:31;;;;;;;52.78;22.02;;;;;;;12.01;75.59;99787.06;1617775;87;21122;-73
2021/09/11 04:12:57;;;;;;;46.63;22.50;;;;;;;12.00;75.76;99789.59;1643508;87;21110;-75
2021/09/11 04:15:29;;;;;;;43.68;20.52;;;;;;;11.98;76.14;99793.23;1619399;87;21033;-72
2021/09/11 04:18:00;;;;;;;47.38;21.02;;;;;;;11.99;76.44;99791.30;1621017;87;21617;-72
2021/09/11 04:20:30;;;;;;;44.93;21.00;;;;;;;12.08;76.54;99798.22;1646560;87;21004;-75
2021/09/11 04:22:56;;;;;;;43.68;22.02;;;;;;;12.18;76.48;99804.81;1642761;85;21608;-72
2021/09/11 04:25:22;;;;;;;42.93;21.75;;;;;;;12.21;76.79;99801.98;1613038;88;21094;-71
2021/09/11 04:27:51;;;;;;;47.00;24.00;;;;;;;12.26;76.96;99800.44;1590558;89;21125;-75
2021/09/11 04:30:18;;;;;;;44.80;23.77;;;;;;;12.35;77.15;99798.47;1646414;86;21067;-69
2021/09/11 04:32:51;;;;;;;46.73;24.27;;;;;;;12.44;77.04;99801.80;1611701;88;21383;-74
2021/09/11 04:35:18;;;;;;;42.65;22.37;;;;;;;12.51;77.19;99797.98;1613864;88;21826;-71
2021/09/11 04:37:45;;;;;;;46.23;24.43;;;;;;;12.53;77.45;99802.06;1646319;87;21047;-71
2021/09/11 04:40:13;;;;;;;47.40;26.02;;;;;;;12.56;77.61;99798.38;1646566;87;21111;-74
2021/09/11 04:42:39;;;;;;;49.27;23.55;;;;;;;12.60;77.70;99798.80;1646746;87;21063;-71
2021/09/11 04:45:07;;;;;;;50.28;24.98;;;;;;;12.70;77.84;99799.03;1642747;85;21095;-73
2021/09/11 04:47:34;;;;;;;55.38;26.35;;;;;;;12.83;77.97;99795.03;1646449;86;21156;-74
2021/09/11 04:50:03;;;;;;;58.00;28.87;;;;;;;12.97;78.17;99789.28;1633762;86;21068;-72
2021/09/11 04:52:32;;;;;;;61.00;30.68;;;;;;;13.07;78.08;99794.45;1641864;86;21113;-71
2021/09/11 04:54:59;;;;;;;52.70;28.90;;;;;;;13.13;77.87;99795.92;1632269;88;21090;-74
2021/09/11 04:57:25;;;;;;;57.23;28.77;;;;;;;13.20;77.88;99794.59;1623319;87;21526;-74
2021/09/11 04:59:52;;;;;;;50.88;27.35;;;;;;;13.25;78.08;99796.61;1632328;88;21645;-71
2021/09/11 05:02:19;;;;;;;47.95;25.45;;;;;;;13.30;78.33;99792.02;1612370;87;21479;-73
2021/09/11 05:04:45;;;;;;;57.85;26.23;;;;;;;13.35;78.71;99794.04;1632338;88;21049;-74
2021/09/11 05:07:11;;;;;;;55.00;28.90;;;;;;;13.43;79.01;99797.08;1632495;87;21090;-73
2021/09/11 05:09:41;;;;;;;55.98;28.23;;;;;;;13.54;79.09;99800.33;1641130;87;21098;-72
2021/09/11 05:12:19;;;;;;;48.25;26.05;;;;;;;13.68;79.11;99802.87;1636889;87;21067;-76
2021/09/11 05:14:46;;;;;;;48.23;26.25;;;;;;;13.81;79.28;99797.66;1632435;88;21555;-72
2021/09/11 05:17:14;;;;;;;56.45;26.60;;;;;;;13.95;79.62;99794.64;1622763;87;21106;-72
2021/09/11 05:19:41;;;;;;;52.88;28.83;;;;;;;14.09;80.03;99797.72;1621751;87;21332;-76
2021/09/11 05:22:08;;;;;;;56.68;28.00;;;;;;;14.22;80.80;99789.72;1632381;87;21686;-73
2021/09/11 05:24:34;;;;;;;65.97;31.73;;;;;;;14.36;81.25;99785.25;1632397;88;22192;-71
2021/09/11 05:27:04;;;;;;;67.12;30.62;;;;;;;14.51;81.68;99784.41;1632152;88;21066;-70
2021/09/11 05:29:35;;;;;;;64.40;29.18;;;;;;;14.66;82.18;99782.13;1632341;86;21047;-70
2021/09/11 05:32:03;;;;;;;69.15;29.70;;;;;;;14.82;82.53;99787.89;1612054;88;21007;-73
2021/09/11 05:34:29;;;;;;;85.00;30.88;;;;;;;14.97;82.89;99791.97;1612036;88;21074;-74
2021/09/11 05:36:55;;;;;;;59.18;29.10;;;;;;;15.08;82.99;99785.41;1632344;88;21980;-74
2021/09/11 05:39:23;;;;;;;66.77;29.55;;;;;;;15.20;83.26;99784.59;1632216;88;20999;-71
2021/09/11 05:41:49;;;;;;;58.75;28.23;;;;;;;15.31;83.42;99788.55;1630352;88;21031;-72
2021/09/11 05:44:15;;;;;;;57.20;26.52;;;;;;;15.43;82.81;99792.48;1632612;87;21042;-73
2021/09/11 05:46:43;;;;;;;52.03;27.00;;;;;;;15.55;81.65;99791.67;1623134;86;20987;-77
2021/09/11 05:49:11;;;;;;;58.90;27.90;;;;;;;15.67;80.65;99784.73;1632453;88;21505;-73
2021/09/11 05:51:39;;;;;;;56.83;27.75;;;;;;;15.81;79.96;99791.89;1628709;88;21015;-75
2021/09/11 05:54:05;;;;;;;58.28;26.50;;;;;;;15.93;79.09;99787.69;1633386;85;21590;-75
2021/09/11 05:56:33;;;;;;;66.37;26.10;;;;;;;16.09;77.72;99787.59;1632025;88;21488;-70
2021/09/11 05:59:01;;;;;;;51.90;26.10;;;;;;;16.27;77.05;99783.95;1628833;88;21062;-75
2021/09/11 06:01:28;;;;;;;66.85;24.92;;;;;;;16.41;75.20;99783.55;1629994;87;21617;-74
2021/09/11 06:03:54;;;;;;;63.60;23.98;;;;;;;16.58;74.06;99789.36;1632042;87;21105;-71
2021/09/11 06:06:21;;;;;;;56.10;25.77;;;;;;;16.74;73.69;99788.02;1632401;88;21067;-72
2021/09/11 06:08:49;;;;;;;63.87;27.93;;;;;;;16.86;73.59;99789.94;1633925;87;21023;-73
2021/09/11 06:11:19;;;;;;;56.60;25.72;;;;;;;16.96;73.15;99789.98;1632351;87;21109;-71
2021/09/11 06:13:45;;;;;;;49.10;22.77;;;;;;;17.07;72.98;99788.89;1609154;87;21818;-72
2021/09/11 06:16:14;;;;;;;55.15;21.85;;;;;;;17.17;72.48;99791.75;1630232;87;21011;-73
2021/09/11 06:18:42;;;;;;;61.85;22.62;;;;;;;17.28;70.79;99793.42;1637861;87;21027;-74
2021/09/11 06:21:10;;;;;;;47.60;20.57;;;;;;;17.41;70.40;99796.91;1641408;87;21074;-71
2021/09/11 06:23:44;;;;;;;48.08;20.08;;;;;;;17.52;69.28;99803.55;1641000;87;21061;-71
2021/09/11 06:26:15;;;;;;;51.18;16.17;;;;;;;17.66;69.03;99798.69;1640668;87;21007;-72
2021/09/11 06:28:45;;;;;;;40.58;15.58;;;;;;;17.78;68.83;99801.34;1625119;88;21567;-76
2021/09/11 06:31:18;;;;;;;30.95;13.78;;;;;;;17.90;67.31;99801.81;1604927;88;21057;-72
2021/09/11 06:33:48;;;;;;;32.40;13.45;;;;;;;18.02;66.28;99795.31;1645163;86;21085;-76
2021/09/11 06:36:14;;;;;;;26.93;11.10;;;;;;;18.12;65.44;99798.92;1641263;85;21562;-72
2021/09/11 06:38:44;;;;;;;28.67;12.00;;;;;;;18.23;64.16;99793.62;1640998;87;21819;-73
2021/09/11 06:41:10;;;;;;;19.20;10.80;;;;;;;18.32;63.49;99795.37;1619006;87;21086;-76
2021/09/11 06:43:37;;;;;;;27.45;10.48;;;;;;;18.41;63.62;99792.38;1626629;87;21022;-71
2021/09/11 06:46:08;;;;;;;26.23;12.60;;;;;;;18.48;62.63;99793.89;1643617;86;21048;-71
2021/09/11 06:48:36;;;;;;;34.20;12.20;;;;;;;18.57;61.93;99793.67;1634862;87;21058;-75
2021/09/11 06:51:04;;;;;;;27.50;13.90;;;;;;;18.66;61.83;99796.24;1641033;86;21051;-71
2021/09/11 06:53:30;;;;;;;48.98;16.45;;;;;;;18.76;61.95;99803.20;1637273;86;21455;-77
2021/09/11 06:55:57;;;;;;;40.33;15.23;;;;;;;18.85;61.69;99804.58;1628870;87;21027;-77
2021/09/11 06:58:27;;;;;;;60.80;19.55;;;;;;;18.95;62.61;99808.73;1630936;87;21582;-76
2021/09/11 07:00:54;;;;;;;81.15;23.22;;;;;;;19.04;62.07;99811.30;1632624;87;21495;-76
2021/09/11 07:03:29;;;;;;;90.70;24.43;;;;;;;19.11;60.79;99810.64;1630296;87;21070;-74
2021/09/11 07:05:59;;;;;;;86.67;23.85;;;;;;;19.18;60.83;99807.98;1631482;87;21101;-72
2021/09/11 07:08:52;;;;;;;52.80;18.30;;;;;;;19.26;60.81;99804.72;1631983;87;21483;-71
2021/09/11 07:11:26;;;;;;;58.65;18.45;;;;;;;19.38;59.80;99807.12;1629929;87;21011;-78
2021/09/11 07:14:19;;;;;;;56.02;18.00;;;;;;;19.49;59.76;99798.90;1628695;87;21157;-79
2021/09/11 07:16:47;;;;;;;63.40;18.37;;;;;;;19.59;59.42;99795.47;1632043;87;20995;-77
2021/09/11 07:19:18;;;;;;;59.60;19.35;;;;;;;19.68;59.64;99795.20;1632398;87;21050;-73
2021/09/11 07:21:47;;;;;;;41.25;16.30;;;;;;;19.79;58.86;99800.97;1632345;87;21067;-73
2021/09/11 07:24:14;;;;;;;67.82;17.27;;;;;;;19.90;59.10;99796.92;1632326;87;21019;-78
2021/09/11 07:26:40;;;;;;;47.48;19.02;;;;;;;19.99;59.72;99795.25;1631912;87;21011;-72
2021/09/11 07:29:10;;;;;;;50.98;20.05;;;;;;;20.06;58.21;99796.78;1632808;87;21121;-71
2021/09/11 07:31:40;;;;;;;62.90;19.90;;;;;;;20.13;58.43;99792.66;1632355;87;21114;-70
2021/09/11 07:34:08;;;;;;;63.90;20.80;;;;;;;20.21;58.64;99793.58;1632969;87;21503;-75
2021/09/11 07:36:38;;;;;;;60.40;20.02;;;;;;;20.30;58.60;99793.30;1632603;87;21542;-71
2021/09/11 07:39:13;;;;;;;69.85;22.42;;;;;;;20.41;58.23;99801.22;1621864;88;21046;-73
2021/09/11 07:41:42;;;;;;;77.03;22.05;;;;;;;20.50;58.01;99797.32;1632366;87;21511;-77
2021/09/11 07:44:09;;;;;;;80.50;21.20;;;;;;;20.54;57.14;99800.36;1631884;88;21075;-72
2021/09/11 07:46:36;;;;;;;72.05;19.62;;;;;;;20.61;57.31;99802.44;1632753;87;21051;-76
2021/09/11 07:49:06;;;;;;;58.73;18.12;;;;;;;20.66;56.24;99797.91;1632710;87;21034;-74
2021/09/11 07:51:32;;;;;;;47.20;16.48;;;;;;;20.71;56.45;99795.34;1632558;88;21059;-72
2021/09/11 07:54:01;;;;;;;31.23;14.58;;;;;;;20.78;56.18;99804.41;1626261;87;21155;-72
2021/09/11 07:56:27;;;;;;;35.25;14.63;;;;;;;20.84;55.99;99797.30;1619462;88;20988;-76
2021/09/11 07:58:54;;;;;;;37.85;15.23;;;;;;;20.91;55.85;99799.36;1620237;88;21064;-73
2021/09/11 08:01:30;;;;;;;44.77;15.78;;;;;;;21.02;56.30;99803.69;1618560;88;21555;-72
2021/09/11 08:03:57;;;;;;;27.32;14.55;;;;;;;21.13;55.66;99796.80;1619495;88;21077;-75
2021/09/11 08:06:25;;;;;;;36.10;15.20;;;;;;;21.24;55.09;99796.29;1619261;88;21526;-75
2021/09/11 08:08:57;;;;;;;34.38;15.30;;;;;;;21.34;55.18;99793.98;1618235;88;21023;-77
2021/09/11 08:11:27;;;;;;;26.05;13.15;;;;;;;21.42;55.17;99797.64;1619801;88;21098;-72
2021/09/11 08:13:54;;;;;;;27.07;13.18;;;;;;;21.50;52.97;99792.29;1620903;88;21476;-77
2021/09/11 08:16:22;;;;;;;28.42;14.33;;;;;;;21.54;52.55;99794.53;1620718;88;21472;-72
2021/09/11 08:18:49;;;;;;;25.75;14.18;;;;;;;21.55;52.75;99791.93;1621182;88;21543;-76
2021/09/11 08:21:16;;;;;;;24.25;14.45;;;;;;;21.58;53.38;99789.75;1620508;88;21103;-70
2021/09/11 08:23:45;;;;;;;31.17;13.18;;;;;;;21.62;52.38;99789.77;1592049;88;21071;-71
2021/09/11 08:26:15;;;;;;;33.08;14.83;;;;;;;21.69;53.02;99790.42;1613582;86;21004;-75
2021/09/11 08:28:45;;;;;;;33.25;14.30;;;;;;;21.77;53.55;99787.87;1620887;88;21107;-70
2021/09/11 08:31:13;;;;;;;22.90;14.07;;;;;;;21.90;52.98;99788.39;1620891;88;21045;-72
2021/09/11 08:33:42;;;;;;;32.55;15.30;;;;;;;22.00;52.11;99789.64;1602315;88;21130;-76
2021/09/11 08:36:11;;;;;;;41.92;16.27;;;;;;;22.08;51.86;99786.27;1602534;88;21071;-71
2021/09/11 08:38:40;;;;;;;29.55;14.60;;;;;;;22.17;52.76;99783.11;1602153;88;21071;-75
2021/09/11 08:41:08;;;;;;;32.45;14.95;;;;;;;22.23;52.83;99779.53;1617228;88;21083;-73
2021/09/11 08:43:36;;;;;;;38.33;15.72;;;;;;;22.34;52.15;99777.37;1620487;88;21160;-72
2021/09/11 08:46:04;;;;;;;36.77;15.63;;;;;;;22.33;51.26;99779.36;1620303;88;21043;-72
2021/09/11 08:48:34;;;;;;;28.50;15.63;;;;;;;22.33;50.95;99780.77;1620345;88;21099;-73
2021/09/11 08:51:01;;;;;;;32.23;14.28;;;;;;;22.37;51.22;99773.77;1620149;88;21015;-71
2021/09/11 08:53:27;;;;;;;21.50;13.60;;;;;;;22.45;51.95;99773.21;1613172;87;21066;-69
2021/09/11 08:56:00;;;;;;;32.42;13.65;;;;;;;22.55;52.06;99773.84;1628995;88;21082;-72
2021/09/11 08:58:27;;;;;;;24.20;13.38;;;;;;;22.66;50.25;99770.27;1629088;87;21026;-76
2021/09/11 09:00:55;;;;;;;25.25;13.08;;;;;;;22.70;49.84;99775.30;1631731;88;21098;-77
2021/09/11 09:03:44;;;;;;;31.05;14.28;;;;;;;22.72;49.93;99773.69;1632216;87;21071;-72
2021/09/11 09:06:30;;;;;;;37.17;13.98;;;;;;;22.72;49.31;99768.08;1611687;88;21038;-72
2021/09/11 09:09:15;;;;;;;23.52;12.00;;;;;;;22.69;49.16;99765.28;1631921;87;21113;-72
2021/09/11 09:11:44;;;;;;;16.25;10.48;;;;;;;22.63;50.69;99761.24;1571993;88;21123;-70
2021/09/11 09:14:15;;;;;;;20.08;10.15;;;;;;;22.50;48.97;99764.41;1611326;86;21571;-74
2021/09/11 09:16:44;;;;;;;18.92;10.78;;;;;;;22.42;50.02;99759.95;1607504;87;21053;-74
2021/09/11 09:19:24;;;;;;;23.77;10.50;;;;;;;22.39;50.52;99754.54;1626020;88;21135;-74
2021/09/11 09:21:53;;;;;;;20.72;10.25;;;;;;;22.40;49.83;99755.35;1629416;88;21113;-74
2021/09/11 09:24:35;;;;;;;18.85;10.25;;;;;;;22.37;47.68;99749.91;1631904;87;21571;-71
2021/09/11 09:27:04;;;;;;;23.83;11.70;;;;;;;22.36;48.00;99749.72;1611775;87;21101;-74
2021/09/11 09:29:40;;;;;;;27.05;12.33;;;;;;;22.41;48.27;99749.34;1640753;87;21065;-76
2021/09/11 09:32:06;;;;;;;;;;;;;;;22.47;49.21;99750.55;1643649;87;21098;-71
2021/09/11 09:34:40;;;;;;;19.02;11.65;;;;;;;22.55;50.22;99748.58;1640755;87;21208;-73
2021/09/11 09:37:12;;;;;;;22.95;12.80;;;;;;;22.60;49.71;99750.19;1609850;87;21529;-69
2021/09/11 09:39:42;;;;;;;25.85;12.47;;;;;;;22.66;48.37;99750.02;1637571;87;21062;-72
2021/09/11 09:42:10;;;;;;;21.87;11.90;;;;;;;22.78;48.29;99749.44;1609755;87;21041;-75
2021/09/11 09:44:43;;;;;;;30.85;13.10;;;;;;;22.91;50.32;99754.09;1613710;87;21053;-75
2021/09/11 09:47:14;;;;;;;;;;;;;;;23.04;49.13;99748.87;1637323;87;21595;-74
2021/09/11 09:49:40;;;;;;;20.92;11.93;;;;;;;23.15;48.35;99747.48;1640895;87;20509;-72
2021/09/11 09:52:07;;;;;;;28.65;13.13;;;;;;;23.27;49.18;99749.86;1641272;87;21015;-74
2021/09/11 09:54:36;;;;;;;22.98;14.07;;;;;;;23.40;48.79;99746.66;1636993;86;21023;-77
2021/09/11 09:57:04;;;;;;;19.05;12.07;;;;;;;23.51;48.39;99746.68;1632454;87;21007;-75
2021/09/11 09:59:32;;;;;;;21.02;11.18;;;;;;;23.64;47.72;99738.61;1632414;87;21539;-72
2021/09/11 10:02:01;;;;;;;18.62;12.50;;;;;;;23.75;47.03;99732.97;1636601;86;21034;-74
2021/09/11 10:04:33;;;;;;;21.55;12.82;;;;;;;23.74;45.34;99740.59;1626713;87;21026;-75
2021/09/11 10:07:04;;;;;;;26.35;13.38;;;;;;;23.62;46.03;99739.02;1632337;87;21027;-78
2021/09/11 10:09:37;;;;;;;19.70;12.53;;;;;;;23.56;45.31;99732.99;1632533;87;21059;-76
2021/09/11 10:12:41;;;;;;;20.70;12.82;;;;;;;23.61;46.02;99732.39;1625329;87;21016;-74
2021/09/11 10:15:36;;;;;;;24.60;13.40;;;;;;;23.65;44.60;99726.14;1632295;87;21075;-74
2021/09/11 10:18:35;;;;;;;19.60;11.48;;;;;;;23.74;45.64;99725.72;1630036;86;21355;-74
2021/09/11 10:21:38;;;;;;;24.92;12.45;;;;;;;23.85;46.26;99729.30;1619047;87;21062;-73
2021/09/11 10:24:17;;;;;;;20.52;11.80;;;;;;;23.93;45.98;99729.50;1631142;87;21546;-72
2021/09/11 10:27:11;;;;;;;18.60;11.97;;;;;;;23.92;45.17;99725.66;1632397;87;21534;-74
2021/09/11 10:29:37;;;;;;;19.02;13.28;;;;;;;23.98;46.17;99727.45;1630397;87;21085;-76
2021/09/11 10:32:23;;;;;;;32.93;13.08;;;;;;;24.11;45.73;99720.77;1632390;87;21058;-73
2021/09/11 10:35:08;;;;;;;15.53;11.57;;;;;;;24.26;45.70;99721.55;1632215;87;21023;-73
2021/09/11 10:37:50;;;;;;;21.40;12.43;;;;;;;24.40;45.45;99717.84;1620248;87;20995;-73
2021/09/11 10:40:32;;;;;;;22.50;11.33;;;;;;;24.49;42.95;99711.16;1632312;87;21558;-73
2021/09/11 10:43:28;;;;;;;18.12;12.23;;;;;;;24.44;44.54;99714.41;1630873;87;21069;-73
2021/09/11 10:45:59;;;;;;;19.48;11.33;;;;;;;24.35;42.88;99710.63;1631448;87;20999;-76
2021/09/11 10:48:44;;;;;;;15.03;10.20;;;;;;;24.12;42.75;99706.91;1630763;87;21038;-73
2021/09/11 10:51:35;;;;;;;26.12;11.80;;;;;;;24.08;43.63;99701.30;1631000;87;46808;-75
2021/09/11 10:54:27;;;;;;;19.15;11.48;;;;;;;24.18;43.60;99703.28;1632241;87;21125;-74
2021/09/11 10:57:04;;;;;;;21.82;11.25;;;;;;;24.37;44.88;99703.98;1631759;88;21050;-70
2021/09/11 10:59:32;;;;;;;16.57;10.48;;;;;;;24.58;44.56;99701.45;1631304;87;21109;-73
2021/09/11 11:02:37;;;;;;;20.62;11.57;;;;;;;24.74;43.91;99696.09;1639865;87;20999;-70
2021/09/11 11:05:10;;;;;;;18.40;10.30;;;;;;;24.87;43.32;99692.79;1630587;85;21561;-72
2021/09/11 11:07:47;;;;;;;23.85;11.18;;;;;;;25.02;42.25;99690.68;1641119;86;20999;-72
2021/09/11 11:10:18;;;;;;;18.20;11.73;;;;;;;25.10;42.83;99685.77;1613122;87;21074;-73
2021/09/11 11:12:50;;;;;;;19.10;11.75;;;;;;;25.20;42.80;99683.45;1640180;87;21487;-72
2021/09/11 11:15:27;;;;;;;17.57;10.20;;;;;;;25.31;42.38;99682.55;1639906;87;21062;-73
2021/09/11 11:17:56;;;;;;;21.93;10.15;;;;;;;25.40;42.66;99678.02;1641143;86;21096;-76
2021/09/11 11:20:28;;;;;;;19.60;12.25;;;;;;;25.51;42.94;99670.87;1628256;88;21532;-73
2021/09/11 11:22:59;;;;;;;17.37;11.10;;;;;;;25.57;42.82;99669.80;1629594;87;21052;-76
2021/09/11 11:25:33;;;;;;;18.07;10.80;;;;;;;25.52;41.93;99668.86;1632386;87;21014;-73
2021/09/11 11:28:00;;;;;;;20.75;11.35;;;;;;;25.47;41.22;99667.27;1629512;88;21122;-77
2021/09/11 11:30:27;;;;;;;24.70;11.08;;;;;;;25.43;41.34;99665.12;1607714;87;21510;-74